MDSD/SDQ METAR and TAF weather

Enter ICAO airport designator
Station Type Date Time Source
MDSD METAR 2019/04/19 08:00 UTC NOAA

MDSD 190800Z 00000KT 9999 BKN016 23/20 Q1014


Station Type Date Time Source
MDSD Decoded METAR 2019/04/19 08:00 UTC NOAA

Las Americas, Dominican Republic (MDSD) 18-26N 069-40W
Apr 19, 2019 - 04:00 AM EDT / 2019.04.19 0800 UTC
Wind: Calm:0
Visibility: greater than 7 mile(s):0
Sky conditions: mostly cloudy
Temperature: 73 F (23 C)
Dew Point: 68 F (20 C)
Relative Humidity: 83%
Pressure (altimeter): 29.94 in. Hg (1014 hPa)
ob: MDSD 190800Z 00000KT 9999 BKN016 23/20 Q1014
cycle: 8

Station Type Date Time Source
MDSD TAF 2019/04/19 06:09 UTC NOAA

TAF MDSD 190400Z 1906/2006 040006KT 9999 FEW018
BECMG 1913/1915 11008KT

Example: see airport list